sensor_id;sensor_type;location;lat;lon;timestamp;temperature;humidity
7117;DHT22;3600;48.568;7.870;2023-05-29T00:02:07;16.00;96.30
7117;DHT22;3600;48.568;7.870;2023-05-29T00:04:34;15.80;96.30
7117;DHT22;3600;48.568;7.870;2023-05-29T00:07:02;15.80;96.70
7117;DHT22;3600;48.568;7.870;2023-05-29T00:09:29;15.80;96.60
7117;DHT22;3600;48.568;7.870;2023-05-29T00:11:56;15.80;96.40
7117;DHT22;3600;48.568;7.870;2023-05-29T00:14:23;15.70;96.40
7117;DHT22;3600;48.568;7.870;2023-05-29T00:16:51;15.60;96.50
7117;DHT22;3600;48.568;7.870;2023-05-29T00:19:18;15.50;96.70
7117;DHT22;3600;48.568;7.870;2023-05-29T00:21:48;15.60;96.60
7117;DHT22;3600;48.568;7.870;2023-05-29T00:24:15;15.70;96.50
7117;DHT22;3600;48.568;7.870;2023-05-29T00:26:43;15.70;96.60
7117;DHT22;3600;48.568;7.870;2023-05-29T00:29:10;15.70;96.50
7117;DHT22;3600;48.568;7.870;2023-05-29T00:31:37;15.50;96.80
7117;DHT22;3600;48.568;7.870;2023-05-29T00:34:04;15.40;97.10
7117;DHT22;3600;48.568;7.870;2023-05-29T00:36:31;15.10;97.50
7117;DHT22;3600;48.568;7.870;2023-05-29T00:38:58;15.10;97.70
7117;DHT22;3600;48.568;7.870;2023-05-29T00:41:24;15.10;97.70
7117;DHT22;3600;48.568;7.870;2023-05-29T00:43:51;15.10;97.80
7117;DHT22;3600;48.568;7.870;2023-05-29T00:46:18;15.20;97.80
7117;DHT22;3600;48.568;7.870;2023-05-29T00:48:47;15.10;97.90
7117;DHT22;3600;48.568;7.870;2023-05-29T00:51:14;15.00;98.10
7117;DHT22;3600;48.568;7.870;2023-05-29T00:53:43;15.10;98.10
7117;DHT22;3600;48.568;7.870;2023-05-29T00:56:11;15.10;98.10
7117;DHT22;3600;48.568;7.870;2023-05-29T00:58:38;15.10;98.20
7117;DHT22;3600;48.568;7.870;2023-05-29T01:01:05;15.20;98.10
7117;DHT22;3600;48.568;7.870;2023-05-29T01:03:32;15.30;98.10
7117;DHT22;3600;48.568;7.870;2023-05-29T01:16:59;15.10;98.60
7117;DHT22;3600;48.568;7.870;2023-05-29T01:22:13;14.80;98.90
7117;DHT22;3600;48.568;7.870;2023-05-29T01:25:11;14.60;99.20
7117;DHT22;3600;48.568;7.870;2023-05-29T01:27:40;14.60;99.40
7117;DHT22;3600;48.568;7.870;2023-05-29T01:30:08;14.70;99.30
7117;DHT22;3600;48.568;7.870;2023-05-29T01:32:36;14.70;99.20
7117;DHT22;3600;48.568;7.870;2023-05-29T01:35:04;14.80;99.20
7117;DHT22;3600;48.568;7.870;2023-05-29T01:37:31;14.80;99.30
7117;DHT22;3600;48.568;7.870;2023-05-29T01:39:59;14.90;99.20
7117;DHT22;3600;48.568;7.870;2023-05-29T01:42:27;14.80;99.20
7117;DHT22;3600;48.568;7.870;2023-05-29T01:44:55;14.70;99.30
7117;DHT22;3600;48.568;7.870;2023-05-29T01:47:23;14.80;99.40
7117;DHT22;3600;48.568;7.870;2023-05-29T01:49:51;14.70;99.50
7117;DHT22;3600;48.568;7.870;2023-05-29T01:52:18;14.40;99.80
7117;DHT22;3600;48.568;7.870;2023-05-29T01:54:45;14.20;99.90
7117;DHT22;3600;48.568;7.870;2023-05-29T01:57:12;14.40;99.90
7117;DHT22;3600;48.568;7.870;2023-05-29T01:59:39;14.50;99.90
7117;DHT22;3600;48.568;7.870;2023-05-29T02:02:08;14.40;99.90
7117;DHT22;3600;48.568;7.870;2023-05-29T02:04:35;14.10;99.90
7117;DHT22;3600;48.568;7.870;2023-05-29T02:07:02;14.10;99.90
7117;DHT22;3600;48.568;7.870;2023-05-29T02:09:29;14.10;99.90
7117;DHT22;3600;48.568;7.870;2023-05-29T02:11:57;13.90;99.90
7117;DHT22;3600;48.568;7.870;2023-05-29T02:14:24;13.80;99.90
7117;DHT22;3600;48.568;7.870;2023-05-29T02:16:53;13.80;99.90
7117;DHT22;3600;48.568;7.870;2023-05-29T02:19:20;13.80;99.90
7117;DHT22;3600;48.568;7.870;2023-05-29T02:21:47;13.80;99.90
7117;DHT22;3600;48.568;7.870;2023-05-29T02:24:15;13.90;99.90
7117;DHT22;3600;48.568;7.870;2023-05-29T02:26:42;14.00;99.90
7117;DHT22;3600;48.568;7.870;2023-05-29T02:29:08;13.90;99.90
7117;DHT22;3600;48.568;7.870;2023-05-29T02:31:37;13.90;99.90
7117;DHT22;3600;48.568;7.870;2023-05-29T02:34:10;13.90;99.90
7117;DHT22;3600;48.568;7.870;2023-05-29T02:36:36;13.70;99.90
7117;DHT22;3600;48.568;7.870;2023-05-29T02:39:05;13.50;99.90
7117;DHT22;3600;48.568;7.870;2023-05-29T02:41:32;13.50;99.90
7117;DHT22;3600;48.568;7.870;2023-05-29T02:43:59;13.50;99.90
7117;DHT22;3600;48.568;7.870;2023-05-29T02:46:26;13.60;99.90
7117;DHT22;3600;48.568;7.870;2023-05-29T02:48:53;13.60;99.90
7117;DHT22;3600;48.568;7.870;2023-05-29T02:51:20;13.60;99.90
7117;DHT22;3600;48.568;7.870;2023-05-29T02:53:46;13.60;99.90
7117;DHT22;3600;48.568;7.870;2023-05-29T02:56:15;13.50;99.90
7117;DHT22;3600;48.568;7.870;2023-05-29T02:58:42;13.60;99.90
7117;DHT22;3600;48.568;7.870;2023-05-29T03:01:09;13.60;99.90
7117;DHT22;3600;48.568;7.870;2023-05-29T03:03:36;13.70;99.90
7117;DHT22;3600;48.568;7.870;2023-05-29T03:06:03;13.90;99.90
7117;DHT22;3600;48.568;7.870;2023-05-29T03:08:31;14.00;99.90
7117;DHT22;3600;48.568;7.870;2023-05-29T03:10:58;13.90;99.90
7117;DHT22;3600;48.568;7.870;2023-05-29T03:13:24;13.90;99.90
7117;DHT22;3600;48.568;7.870;2023-05-29T03:15:51;13.70;99.90
7117;DHT22;3600;48.568;7.870;2023-05-29T03:18:23;13.70;99.90
7117;DHT22;3600;48.568;7.870;2023-05-29T03:20:50;13.50;99.90
7117;DHT22;3600;48.568;7.870;2023-05-29T03:23:17;13.70;99.90
7117;DHT22;3600;48.568;7.870;2023-05-29T03:25:44;13.70;99.90
7117;DHT22;3600;48.568;7.870;2023-05-29T03:28:10;13.70;99.90
7117;DHT22;3600;48.568;7.870;2023-05-29T03:30:37;13.80;99.90
7117;DHT22;3600;48.568;7.870;2023-05-29T03:33:04;13.80;99.90
7117;DHT22;3600;48.568;7.870;2023-05-29T03:35:32;13.60;99.90
7117;DHT22;3600;48.568;7.870;2023-05-29T03:37:59;13.50;99.90
7117;DHT22;3600;48.568;7.870;2023-05-29T03:40:26;13.30;99.90
7117;DHT22;3600;48.568;7.870;2023-05-29T03:42:58;13.20;99.90
7117;DHT22;3600;48.568;7.870;2023-05-29T03:45:25;13.40;99.90
7117;DHT22;3600;48.568;7.870;2023-05-29T03:47:52;13.30;99.90
7117;DHT22;3600;48.568;7.870;2023-05-29T03:50:19;13.40;99.90
7117;DHT22;3600;48.568;7.870;2023-05-29T03:52:46;13.40;99.90
7117;DHT22;3600;48.568;7.870;2023-05-29T03:55:12;13.40;99.90
7117;DHT22;3600;48.568;7.870;2023-05-29T03:57:41;13.40;99.90
7117;DHT22;3600;48.568;7.870;2023-05-29T04:00:09;13.50;99.90
7117;DHT22;3600;48.568;7.870;2023-05-29T04:02:37;13.50;99.90
7117;DHT22;3600;48.568;7.870;2023-05-29T04:05:05;13.50;99.90
7117;DHT22;3600;48.568;7.870;2023-05-29T04:07:33;13.60;99.90
7117;DHT22;3600;48.568;7.870;2023-05-29T04:10:00;13.50;99.90
7117;DHT22;3600;48.568;7.870;2023-05-29T04:12:27;13.60;99.90
7117;DHT22;3600;48.568;7.870;2023-05-29T04:14:54;13.50;99.90
7117;DHT22;3600;48.568;7.870;2023-05-29T04:17:21;13.40;99.90
7117;DHT22;3600;48.568;7.870;2023-05-29T04:19:48;13.30;99.90
7117;DHT22;3600;48.568;7.870;2023-05-29T04:22:15;13.20;99.90
7117;DHT22;3600;48.568;7.870;2023-05-29T04:24:42;13.30;99.90
7117;DHT22;3600;48.568;7.870;2023-05-29T04:27:09;13.40;99.90
7117;DHT22;3600;48.568;7.870;2023-05-29T04:29:42;13.40;99.90
7117;DHT22;3600;48.568;7.870;2023-05-29T04:32:09;13.40;99.90
7117;DHT22;3600;48.568;7.870;2023-05-29T04:34:38;13.40;99.90
7117;DHT22;3600;48.568;7.870;2023-05-29T04:37:10;13.50;99.90
7117;DHT22;3600;48.568;7.870;2023-05-29T04:39:37;13.50;99.90
7117;DHT22;3600;48.568;7.870;2023-05-29T04:42:04;13.50;99.90
7117;DHT22;3600;48.568;7.870;2023-05-29T04:44:31;13.80;99.90
7117;DHT22;3600;48.568;7.870;2023-05-29T04:46:59;14.00;99.90
7117;DHT22;3600;48.568;7.870;2023-05-29T04:49:30;13.90;99.90
7117;DHT22;3600;48.568;7.870;2023-05-29T04:51:57;14.00;99.90
7117;DHT22;3600;48.568;7.870;2023-05-29T04:54:27;14.20;99.90
7117;DHT22;3600;48.568;7.870;2023-05-29T04:56:54;14.30;99.80
7117;DHT22;3600;48.568;7.870;2023-05-29T04:59:21;14.30;99.90
7117;DHT22;3600;48.568;7.870;2023-05-29T05:01:48;14.40;99.90
7117;DHT22;3600;48.568;7.870;2023-05-29T05:04:15;14.50;99.80
7117;DHT22;3600;48.568;7.870;2023-05-29T05:06:42;14.40;99.90
7117;DHT22;3600;48.568;7.870;2023-05-29T05:09:10;14.40;99.90
7117;DHT22;3600;48.568;7.870;2023-05-29T05:11:37;14.40;99.90
7117;DHT22;3600;48.568;7.870;2023-05-29T05:14:04;14.50;99.80
7117;DHT22;3600;48.568;7.870;2023-05-29T05:16:31;14.50;99.80
7117;DHT22;3600;48.568;7.870;2023-05-29T05:19:00;14.60;99.60
7117;DHT22;3600;48.568;7.870;2023-05-29T05:21:27;14.60;99.70
7117;DHT22;3600;48.568;7.870;2023-05-29T05:23:57;14.60;99.50
7117;DHT22;3600;48.568;7.870;2023-05-29T05:26:24;14.70;99.60
7117;DHT22;3600;48.568;7.870;2023-05-29T05:28:53;14.80;99.20
7117;DHT22;3600;48.568;7.870;2023-05-29T05:31:20;14.90;98.90
7117;DHT22;3600;48.568;7.870;2023-05-29T05:33:47;14.90;98.90
7117;DHT22;3600;48.568;7.870;2023-05-29T05:36:14;14.90;98.90
7117;DHT22;3600;48.568;7.870;2023-05-29T05:38:41;15.00;98.90
7117;DHT22;3600;48.568;7.870;2023-05-29T05:41:08;15.10;99.00
7117;DHT22;3600;48.568;7.870;2023-05-29T05:43:35;15.20;98.90
7117;DHT22;3600;48.568;7.870;2023-05-29T05:46:02;15.20;99.00
7117;DHT22;3600;48.568;7.870;2023-05-29T05:48:29;15.30;98.90
7117;DHT22;3600;48.568;7.870;2023-05-29T05:50:56;15.30;98.80
7117;DHT22;3600;48.568;7.870;2023-05-29T05:53:23;15.40;99.20
7117;DHT22;3600;48.568;7.870;2023-05-29T05:55:50;15.50;98.50
7117;DHT22;3600;48.568;7.870;2023-05-29T05:58:17;15.60;98.50
7117;DHT22;3600;48.568;7.870;2023-05-29T06:00:44;15.60;98.20
7117;DHT22;3600;48.568;7.870;2023-05-29T06:03:11;15.70;97.90
7117;DHT22;3600;48.568;7.870;2023-05-29T06:05:38;15.80;97.60
7117;DHT22;3600;48.568;7.870;2023-05-29T06:08:07;15.80;97.40
7117;DHT22;3600;48.568;7.870;2023-05-29T06:10:35;16.00;97.60
7117;DHT22;3600;48.568;7.870;2023-05-29T06:13:04;16.10;97.80
7117;DHT22;3600;48.568;7.870;2023-05-29T06:15:31;16.20;97.50
7117;DHT22;3600;48.568;7.870;2023-05-29T06:17:58;16.20;96.90
7117;DHT22;3600;48.568;7.870;2023-05-29T06:20:25;16.20;96.80
7117;DHT22;3600;48.568;7.870;2023-05-29T06:22:51;16.20;96.90
7117;DHT22;3600;48.568;7.870;2023-05-29T06:25:20;16.30;96.90
7117;DHT22;3600;48.568;7.870;2023-05-29T06:27:47;16.40;96.30
7117;DHT22;3600;48.568;7.870;2023-05-29T06:30:14;16.30;96.10
7117;DHT22;3600;48.568;7.870;2023-05-29T06:32:42;16.40;96.20
7117;DHT22;3600;48.568;7.870;2023-05-29T06:35:09;16.50;96.50
7117;DHT22;3600;48.568;7.870;2023-05-29T06:37:35;16.60;96.30
7117;DHT22;3600;48.568;7.870;2023-05-29T06:40:02;16.70;96.40
7117;DHT22;3600;48.568;7.870;2023-05-29T06:42:30;16.80;95.80
7117;DHT22;3600;48.568;7.870;2023-05-29T06:44:57;16.80;95.80
7117;DHT22;3600;48.568;7.870;2023-05-29T06:47:24;16.90;95.70
7117;DHT22;3600;48.568;7.870;2023-05-29T06:49:51;16.90;95.50
7117;DHT22;3600;48.568;7.870;2023-05-29T06:52:18;17.00;95.50
7117;DHT22;3600;48.568;7.870;2023-05-29T06:54:46;17.00;95.80
7117;DHT22;3600;48.568;7.870;2023-05-29T06:57:13;17.10;95.60
7117;DHT22;3600;48.568;7.870;2023-05-29T06:59:40;17.20;95.60
7117;DHT22;3600;48.568;7.870;2023-05-29T07:02:07;17.20;95.80
7117;DHT22;3600;48.568;7.870;2023-05-29T07:04:34;17.40;95.30
7117;DHT22;3600;48.568;7.870;2023-05-29T07:07:01;17.40;95.10
7117;DHT22;3600;48.568;7.870;2023-05-29T07:09:27;17.40;94.90
7117;DHT22;3600;48.568;7.870;2023-05-29T07:11:54;17.50;95.30
7117;DHT22;3600;48.568;7.870;2023-05-29T07:14:21;17.60;95.20
7117;DHT22;3600;48.568;7.870;2023-05-29T07:16:48;17.70;95.30
7117;DHT22;3600;48.568;7.870;2023-05-29T07:19:15;17.70;94.70
7117;DHT22;3600;48.568;7.870;2023-05-29T07:21:47;17.80;95.10
7117;DHT22;3600;48.568;7.870;2023-05-29T07:24:14;17.80;94.90
7117;DHT22;3600;48.568;7.870;2023-05-29T07:26:42;17.80;95.10
7117;DHT22;3600;48.568;7.870;2023-05-29T07:29:09;17.90;95.00
7117;DHT22;3600;48.568;7.870;2023-05-29T07:31:36;18.00;95.10
7117;DHT22;3600;48.568;7.870;2023-05-29T07:34:05;18.10;95.40
7117;DHT22;3600;48.568;7.870;2023-05-29T07:36:32;18.20;94.90
7117;DHT22;3600;48.568;7.870;2023-05-29T07:38:58;18.20;94.30
7117;DHT22;3600;48.568;7.870;2023-05-29T07:41:25;18.30;94.80
7117;DHT22;3600;48.568;7.870;2023-05-29T07:43:55;18.40;94.90
7117;DHT22;3600;48.568;7.870;2023-05-29T07:46:22;18.40;95.10
7117;DHT22;3600;48.568;7.870;2023-05-29T07:48:49;18.50;94.90
7117;DHT22;3600;48.568;7.870;2023-05-29T07:51:18;18.70;94.20
7117;DHT22;3600;48.568;7.870;2023-05-29T07:53:45;18.80;94.10
7117;DHT22;3600;48.568;7.870;2023-05-29T07:56:13;18.80;94.00
7117;DHT22;3600;48.568;7.870;2023-05-29T07:58:40;18.80;94.10
7117;DHT22;3600;48.568;7.870;2023-05-29T08:01:10;18.90;94.20
7117;DHT22;3600;48.568;7.870;2023-05-29T08:03:36;18.90;93.30
7117;DHT22;3600;48.568;7.870;2023-05-29T08:06:04;19.10;93.50
7117;DHT22;3600;48.568;7.870;2023-05-29T08:08:33;19.00;92.90
7117;DHT22;3600;48.568;7.870;2023-05-29T08:11:00;19.00;93.00
7117;DHT22;3600;48.568;7.870;2023-05-29T08:13:29;19.20;93.00
7117;DHT22;3600;48.568;7.870;2023-05-29T08:15:56;19.30;92.30
7117;DHT22;3600;48.568;7.870;2023-05-29T08:18:59;19.30;92.90
7117;DHT22;3600;48.568;7.870;2023-05-29T08:21:28;19.30;93.30
7117;DHT22;3600;48.568;7.870;2023-05-29T08:23:55;19.30;92.60
7117;DHT22;3600;48.568;7.870;2023-05-29T08:26:22;19.40;93.40
7117;DHT22;3600;48.568;7.870;2023-05-29T08:28:50;19.60;93.00
7117;DHT22;3600;48.568;7.870;2023-05-29T08:31:17;19.60;93.50
7117;DHT22;3600;48.568;7.870;2023-05-29T08:33:44;19.70;92.80
7117;DHT22;3600;48.568;7.870;2023-05-29T08:36:11;19.70;92.70
7117;DHT22;3600;48.568;7.870;2023-05-29T08:38:41;19.90;93.10
7117;DHT22;3600;48.568;7.870;2023-05-29T08:41:08;19.80;92.80
7117;DHT22;3600;48.568;7.870;2023-05-29T08:43:37;20.00;93.30
7117;DHT22;3600;48.568;7.870;2023-05-29T08:46:06;20.10;92.80
7117;DHT22;3600;48.568;7.870;2023-05-29T08:48:36;20.10;92.90
7117;DHT22;3600;48.568;7.870;2023-05-29T08:51:07;20.20;92.90
7117;DHT22;3600;48.568;7.870;2023-05-29T08:53:37;20.20;93.00
7117;DHT22;3600;48.568;7.870;2023-05-29T08:56:04;20.40;92.80
7117;DHT22;3600;48.568;7.870;2023-05-29T08:58:33;20.50;92.50
7117;DHT22;3600;48.568;7.870;2023-05-29T09:01:04;20.50;91.90
7117;DHT22;3600;48.568;7.870;2023-05-29T09:03:31;20.60;92.40
7117;DHT22;3600;48.568;7.870;2023-05-29T09:06:05;20.60;92.10
7117;DHT22;3600;48.568;7.870;2023-05-29T09:08:38;20.70;92.10
7117;DHT22;3600;48.568;7.870;2023-05-29T09:11:08;20.80;92.60
7117;DHT22;3600;48.568;7.870;2023-05-29T09:13:35;20.80;92.70
7117;DHT22;3600;48.568;7.870;2023-05-29T09:16:05;21.00;94.50
7117;DHT22;3600;48.568;7.870;2023-05-29T09:18:33;21.10;92.70
7117;DHT22;3600;48.568;7.870;2023-05-29T09:21:06;21.20;92.30
7117;DHT22;3600;48.568;7.870;2023-05-29T09:23:35;21.20;91.80
7117;DHT22;3600;48.568;7.870;2023-05-29T09:26:04;21.30;92.10
7117;DHT22;3600;48.568;7.870;2023-05-29T09:28:30;21.20;91.70
7117;DHT22;3600;48.568;7.870;2023-05-29T09:30:58;21.40;92.30
7117;DHT22;3600;48.568;7.870;2023-05-29T09:33:25;21.40;92.20
7117;DHT22;3600;48.568;7.870;2023-05-29T09:35:52;21.70;92.80
7117;DHT22;3600;48.568;7.870;2023-05-29T09:38:19;21.80;92.70
7117;DHT22;3600;48.568;7.870;2023-05-29T09:40:51;21.80;92.50
7117;DHT22;3600;48.568;7.870;2023-05-29T09:43:22;22.00;92.60
7117;DHT22;3600;48.568;7.870;2023-05-29T09:45:50;21.80;91.80
7117;DHT22;3600;48.568;7.870;2023-05-29T09:48:22;21.70;92.10
7117;DHT22;3600;48.568;7.870;2023-05-29T09:50:49;21.70;91.60
7117;DHT22;3600;48.568;7.870;2023-05-29T09:53:18;21.90;93.00
7117;DHT22;3600;48.568;7.870;2023-05-29T09:55:56;22.20;92.40
7117;DHT22;3600;48.568;7.870;2023-05-29T09:58:23;22.00;92.10
7117;DHT22;3600;48.568;7.870;2023-05-29T10:00:51;22.30;91.70
7117;DHT22;3600;48.568;7.870;2023-05-29T10:03:19;22.30;92.20
7117;DHT22;3600;48.568;7.870;2023-05-29T10:05:50;22.40;93.20
7117;DHT22;3600;48.568;7.870;2023-05-29T10:08:19;22.50;92.00
7117;DHT22;3600;48.568;7.870;2023-05-29T10:10:49;22.20;92.00
7117;DHT22;3600;48.568;7.870;2023-05-29T10:13:18;22.10;91.70
7117;DHT22;3600;48.568;7.870;2023-05-29T10:15:49;22.10;91.80
7117;DHT22;3600;48.568;7.870;2023-05-29T10:18:27;22.50;92.60
7117;DHT22;3600;48.568;7.870;2023-05-29T10:21:00;22.60;92.00
7117;DHT22;3600;48.568;7.870;2023-05-29T10:23:29;22.70;92.20
7117;DHT22;3600;48.568;7.870;2023-05-29T10:26:03;22.80;91.80
7117;DHT22;3600;48.568;7.870;2023-05-29T10:28:36;22.90;92.40
7117;DHT22;3600;48.568;7.870;2023-05-29T10:31:16;23.00;91.60
7117;DHT22;3600;48.568;7.870;2023-05-29T10:34:20;23.00;91.80
7117;DHT22;3600;48.568;7.870;2023-05-29T10:37:01;22.90;92.00
7117;DHT22;3600;48.568;7.870;2023-05-29T10:39:30;22.90;91.60
7117;DHT22;3600;48.568;7.870;2023-05-29T10:41:57;22.90;91.50
7117;DHT22;3600;48.568;7.870;2023-05-29T10:47:05;23.20;91.50
7117;DHT22;3600;48.568;7.870;2023-05-29T10:49:34;23.10;91.00
7117;DHT22;3600;48.568;7.870;2023-05-29T10:52:03;23.40;91.40
7117;DHT22;3600;48.568;7.870;2023-05-29T10:54:41;23.60;90.90
7117;DHT22;3600;48.568;7.870;2023-05-29T10:57:16;23.90;91.30
7117;DHT22;3600;48.568;7.870;2023-05-29T10:59:45;23.70;90.80
7117;DHT22;3600;48.568;7.870;2023-05-29T11:02:17;23.90;91.00
7117;DHT22;3600;48.568;7.870;2023-05-29T11:04:44;24.10;91.30
7117;DHT22;3600;48.568;7.870;2023-05-29T11:07:50;24.40;92.30
7117;DHT22;3600;48.568;7.870;2023-05-29T11:13:25;24.30;90.60
7117;DHT22;3600;48.568;7.870;2023-05-29T11:16:05;24.40;91.10
7117;DHT22;3600;48.568;7.870;2023-05-29T11:19:04;24.30;89.60
7117;DHT22;3600;48.568;7.870;2023-05-29T11:24:26;24.40;90.50
7117;DHT22;3600;48.568;7.870;2023-05-29T11:26:57;24.20;89.70
7117;DHT22;3600;48.568;7.870;2023-05-29T11:29:33;24.70;89.10
7117;DHT22;3600;48.568;7.870;2023-05-29T11:32:04;24.90;88.40
7117;DHT22;3600;48.568;7.870;2023-05-29T11:34:32;24.90;86.30
7117;DHT22;3600;48.568;7.870;2023-05-29T11:37:02;25.00;89.20
7117;DHT22;3600;48.568;7.870;2023-05-29T11:39:29;25.10;87.80
7117;DHT22;3600;48.568;7.870;2023-05-29T11:41:58;25.20;87.80
7117;DHT22;3600;48.568;7.870;2023-05-29T11:44:26;25.20;88.20
7117;DHT22;3600;48.568;7.870;2023-05-29T11:47:05;24.90;86.80
7117;DHT22;3600;48.568;7.870;2023-05-29T11:49:35;25.20;88.30
7117;DHT22;3600;48.568;7.870;2023-05-29T11:52:10;25.10;87.00
7117;DHT22;3600;48.568;7.870;2023-05-29T11:54:44;25.20;87.40
7117;DHT22;3600;48.568;7.870;2023-05-29T11:57:20;25.30;86.60
7117;DHT22;3600;48.568;7.870;2023-05-29T11:59:49;25.30;87.10
7117;DHT22;3600;48.568;7.870;2023-05-29T12:02:19;25.20;86.70
7117;DHT22;3600;48.568;7.870;2023-05-29T12:05:03;25.40;89.80
7117;DHT22;3600;48.568;7.870;2023-05-29T12:07:31;25.60;87.40
7117;DHT22;3600;48.568;7.870;2023-05-29T12:10:11;25.70;85.10
7117;DHT22;3600;48.568;7.870;2023-05-29T12:12:40;25.60;86.80
7117;DHT22;3600;48.568;7.870;2023-05-29T12:15:08;25.90;86.90
7117;DHT22;3600;48.568;7.870;2023-05-29T12:17:36;26.10;85.10
7117;DHT22;3600;48.568;7.870;2023-05-29T12:20:04;26.00;84.70
7117;DHT22;3600;48.568;7.870;2023-05-29T12:22:39;26.20;86.00
7117;DHT22;3600;48.568;7.870;2023-05-29T12:25:12;26.20;86.40
7117;DHT22;3600;48.568;7.870;2023-05-29T12:27:41;25.90;81.70
7117;DHT22;3600;48.568;7.870;2023-05-29T12:30:10;25.90;82.10
7117;DHT22;3600;48.568;7.870;2023-05-29T12:32:51;25.70;83.40
7117;DHT22;3600;48.568;7.870;2023-05-29T12:35:31;25.70;82.30
7117;DHT22;3600;48.568;7.870;2023-05-29T12:38:04;25.90;82.20
7117;DHT22;3600;48.568;7.870;2023-05-29T12:40:32;25.70;82.10
7117;DHT22;3600;48.568;7.870;2023-05-29T12:43:05;25.90;80.90
7117;DHT22;3600;48.568;7.870;2023-05-29T12:45:34;26.00;82.20
7117;DHT22;3600;48.568;7.870;2023-05-29T12:48:07;26.00;81.10
7117;DHT22;3600;48.568;7.870;2023-05-29T12:50:38;26.20;81.60
7117;DHT22;3600;48.568;7.870;2023-05-29T12:53:08;26.20;82.60
7117;DHT22;3600;48.568;7.870;2023-05-29T12:55:38;26.20;81.90
7117;DHT22;3600;48.568;7.870;2023-05-29T12:58:07;26.50;83.20
7117;DHT22;3600;48.568;7.870;2023-05-29T13:00:35;26.60;82.30
7117;DHT22;3600;48.568;7.870;2023-05-29T13:03:02;26.30;81.60
7117;DHT22;3600;48.568;7.870;2023-05-29T13:05:30;26.10;79.00
7117;DHT22;3600;48.568;7.870;2023-05-29T13:07:58;26.20;80.80
7117;DHT22;3600;48.568;7.870;2023-05-29T13:10:26;26.60;81.00
7117;DHT22;3600;48.568;7.870;2023-05-29T13:12:54;26.40;78.80
7117;DHT22;3600;48.568;7.870;2023-05-29T13:15:25;26.40;79.70
7117;DHT22;3600;48.568;7.870;2023-05-29T13:17:53;26.30;77.50
7117;DHT22;3600;48.568;7.870;2023-05-29T13:20:20;26.20;78.40
7117;DHT22;3600;48.568;7.870;2023-05-29T13:22:48;26.30;78.10
7117;DHT22;3600;48.568;7.870;2023-05-29T13:25:16;26.00;77.30
7117;DHT22;3600;48.568;7.870;2023-05-29T13:27:45;25.80;77.10
7117;DHT22;3600;48.568;7.870;2023-05-29T13:30:14;25.80;78.50
7117;DHT22;3600;48.568;7.870;2023-05-29T13:32:41;26.10;78.80
7117;DHT22;3600;48.568;7.870;2023-05-29T13:35:09;26.10;77.60
7117;DHT22;3600;48.568;7.870;2023-05-29T13:37:37;26.00;76.70
7117;DHT22;3600;48.568;7.870;2023-05-29T13:40:05;26.10;78.60
7117;DHT22;3600;48.568;7.870;2023-05-29T13:42:32;26.10;76.70
7117;DHT22;3600;48.568;7.870;2023-05-29T13:45:10;26.10;77.20
7117;DHT22;3600;48.568;7.870;2023-05-29T13:47:50;25.90;75.70
7117;DHT22;3600;48.568;7.870;2023-05-29T13:50:18;26.00;75.40
7117;DHT22;3600;48.568;7.870;2023-05-29T13:52:44;26.10;75.30
7117;DHT22;3600;48.568;7.870;2023-05-29T13:55:11;26.20;74.90
7117;DHT22;3600;48.568;7.870;2023-05-29T13:57:38;26.60;75.10
7117;DHT22;3600;48.568;7.870;2023-05-29T14:00:11;26.20;74.30
7117;DHT22;3600;48.568;7.870;2023-05-29T14:02:38;26.10;74.40
7117;DHT22;3600;48.568;7.870;2023-05-29T14:05:06;26.10;73.90
7117;DHT22;3600;48.568;7.870;2023-05-29T14:07:33;26.00;74.40
7117;DHT22;3600;48.568;7.870;2023-05-29T14:10:00;26.30;74.80
7117;DHT22;3600;48.568;7.870;2023-05-29T14:12:27;26.30;74.10
7117;DHT22;3600;48.568;7.870;2023-05-29T14:14:54;26.20;73.90
7117;DHT22;3600;48.568;7.870;2023-05-29T14:17:21;26.20;73.20
7117;DHT22;3600;48.568;7.870;2023-05-29T14:19:48;26.30;74.50
7117;DHT22;3600;48.568;7.870;2023-05-29T14:22:19;26.30;73.30
7117;DHT22;3600;48.568;7.870;2023-05-29T14:24:46;26.50;75.10
7117;DHT22;3600;48.568;7.870;2023-05-29T14:27:13;26.30;71.50
7117;DHT22;3600;48.568;7.870;2023-05-29T14:29:39;26.30;72.80
7117;DHT22;3600;48.568;7.870;2023-05-29T14:32:06;26.40;71.20
7117;DHT22;3600;48.568;7.870;2023-05-29T14:34:34;26.40;71.30
7117;DHT22;3600;48.568;7.870;2023-05-29T14:37:01;26.30;73.00
7117;DHT22;3600;48.568;7.870;2023-05-29T14:39:28;26.30;72.50
7117;DHT22;3600;48.568;7.870;2023-05-29T14:41:55;26.00;71.10
7117;DHT22;3600;48.568;7.870;2023-05-29T14:44:22;26.00;70.80
7117;DHT22;3600;48.568;7.870;2023-05-29T14:46:49;26.20;73.20
7117;DHT22;3600;48.568;7.870;2023-05-29T14:49:16;26.00;70.80
7117;DHT22;3600;48.568;7.870;2023-05-29T14:51:43;26.00;71.30
7117;DHT22;3600;48.568;7.870;2023-05-29T14:54:11;25.80;69.60
7117;DHT22;3600;48.568;7.870;2023-05-29T14:56:38;26.10;70.30
7117;DHT22;3600;48.568;7.870;2023-05-29T14:59:05;26.10;69.00
7117;DHT22;3600;48.568;7.870;2023-05-29T15:01:32;26.20;69.70
7117;DHT22;3600;48.568;7.870;2023-05-29T15:03:59;26.10;71.00
7117;DHT22;3600;48.568;7.870;2023-05-29T15:06:29;25.90;70.90
7117;DHT22;3600;48.568;7.870;2023-05-29T15:08:58;26.00;72.20
7117;DHT22;3600;48.568;7.870;2023-05-29T15:11:29;26.30;71.50
7117;DHT22;3600;48.568;7.870;2023-05-29T15:13:56;26.40;71.20
7117;DHT22;3600;48.568;7.870;2023-05-29T15:16:23;26.00;70.80
7117;DHT22;3600;48.568;7.870;2023-05-29T15:18:51;25.90;71.50
7117;DHT22;3600;48.568;7.870;2023-05-29T15:21:22;26.00;70.90
7117;DHT22;3600;48.568;7.870;2023-05-29T15:23:49;26.00;70.30
7117;DHT22;3600;48.568;7.870;2023-05-29T15:26:17;26.10;70.80
7117;DHT22;3600;48.568;7.870;2023-05-29T15:28:44;26.10;71.10
7117;DHT22;3600;48.568;7.870;2023-05-29T15:31:12;26.10;71.30
7117;DHT22;3600;48.568;7.870;2023-05-29T15:33:39;25.90;70.60
7117;DHT22;3600;48.568;7.870;2023-05-29T15:36:06;26.10;71.50
7117;DHT22;3600;48.568;7.870;2023-05-29T15:38:34;26.10;69.80
7117;DHT22;3600;48.568;7.870;2023-05-29T15:41:01;25.80;70.00
7117;DHT22;3600;48.568;7.870;2023-05-29T15:43:27;25.80;71.50
7117;DHT22;3600;48.568;7.870;2023-05-29T15:45:56;25.80;69.60
7117;DHT22;3600;48.568;7.870;2023-05-29T15:48:24;25.80;70.10
7117;DHT22;3600;48.568;7.870;2023-05-29T15:50:51;25.90;70.30
7117;DHT22;3600;48.568;7.870;2023-05-29T15:53:17;25.90;70.80
7117;DHT22;3600;48.568;7.870;2023-05-29T15:55:44;25.90;70.20
7117;DHT22;3600;48.568;7.870;2023-05-29T15:58:11;25.80;70.40
7117;DHT22;3600;48.568;7.870;2023-05-29T16:00:38;26.00;70.40
7117;DHT22;3600;48.568;7.870;2023-05-29T16:03:05;25.80;69.60
7117;DHT22;3600;48.568;7.870;2023-05-29T16:05:34;25.70;69.40
7117;DHT22;3600;48.568;7.870;2023-05-29T16:08:01;25.50;71.80
7117;DHT22;3600;48.568;7.870;2023-05-29T16:10:28;25.80;70.90
7117;DHT22;3600;48.568;7.870;2023-05-29T16:12:55;25.70;70.60
7117;DHT22;3600;48.568;7.870;2023-05-29T16:15:22;25.60;70.20
7117;DHT22;3600;48.568;7.870;2023-05-29T16:17:50;25.50;70.30
7117;DHT22;3600;48.568;7.870;2023-05-29T16:20:17;25.40;69.70
7117;DHT22;3600;48.568;7.870;2023-05-29T16:22:44;25.40;71.20
7117;DHT22;3600;48.568;7.870;2023-05-29T16:25:11;25.40;70.50
7117;DHT22;3600;48.568;7.870;2023-05-29T16:27:38;25.40;71.50
7117;DHT22;3600;48.568;7.870;2023-05-29T16:30:06;25.50;71.20
7117;DHT22;3600;48.568;7.870;2023-05-29T16:32:33;25.40;70.90
7117;DHT22;3600;48.568;7.870;2023-05-29T16:35:04;25.40;72.60